createdAt,value
2023-04-12T00:00:10.791Z,55.89
2023-04-12T00:02:40.528Z,55.89
2023-04-12T00:05:11.594Z,55.98
2023-04-12T00:07:40.137Z,56.07
2023-04-12T00:10:10.326Z,56.09
2023-04-12T00:12:40.873Z,55.87
2023-04-12T00:15:10.303Z,56.22
2023-04-12T00:17:38.633Z,56.20
2023-04-12T00:20:12.154Z,56.97
2023-04-12T00:22:41.581Z,56.84
2023-04-12T00:25:10.234Z,56.61
2023-04-12T00:27:40.659Z,56.87
2023-04-12T00:30:09.712Z,56.87
2023-04-12T00:32:38.032Z,57.05
2023-04-12T00:35:07.004Z,57.55
2023-04-12T00:37:36.319Z,57.45
2023-04-12T00:40:07.006Z,57.19
2023-04-12T00:42:36.051Z,57.13
2023-04-12T00:45:06.903Z,57.11
2023-04-12T00:47:36.863Z,56.89
2023-04-12T00:50:06.023Z,57.07
2023-04-12T00:52:35.573Z,56.99
2023-04-12T00:55:05.113Z,56.52
2023-04-12T00:57:36.624Z,57.04
2023-04-12T01:00:08.360Z,57.24
2023-04-12T01:02:39.439Z,57.14
2023-04-12T01:05:14.703Z,57.21
2023-04-12T01:07:54.311Z,57.27
2023-04-12T01:10:36.189Z,57.39
2023-04-12T01:13:13.662Z,56.69
2023-04-12T01:15:54.601Z,57.18
2023-04-12T01:18:28.086Z,56.93
2023-04-12T01:21:04.881Z,56.79
2023-04-12T01:23:48.491Z,57.13
2023-04-12T01:26:34.466Z,57.66
2023-04-12T01:29:11.944Z,57.09
2023-04-12T01:31:42.252Z,57.10
2023-04-12T01:34:12.902Z,57.56
2023-04-12T01:36:43.785Z,57.29
2023-04-12T01:39:12.350Z,57.65
2023-04-12T01:41:45.604Z,57.44
2023-04-12T01:44:19.050Z,57.52
2023-04-12T01:46:48.209Z,57.77
2023-04-12T01:49:18.780Z,57.71
2023-04-12T01:51:54.431Z,57.43
2023-04-12T01:54:27.410Z,57.61
2023-04-12T01:56:59.178Z,57.54
2023-04-12T01:59:33.626Z,57.37
2023-04-12T02:02:03.562Z,56.82
2023-04-12T02:04:35.284Z,57.84
2023-04-12T02:07:04.040Z,58.02
2023-04-12T02:09:37.052Z,58.01
2023-04-12T02:12:07.086Z,58.01
2023-04-12T02:14:36.976Z,58.41
2023-04-12T02:17:05.904Z,58.48
2023-04-12T02:19:34.661Z,58.75
2023-04-12T02:22:04.529Z,58.71
2023-04-12T02:24:32.948Z,58.90
2023-04-12T02:27:01.445Z,58.61
2023-04-12T02:29:31.314Z,58.42
2023-04-12T02:32:01.027Z,59.09
2023-04-12T02:34:34.305Z,59.26
2023-04-12T02:37:13.735Z,58.96
2023-04-12T02:39:42.032Z,59.20
2023-04-12T02:42:11.077Z,59.18
2023-04-12T02:44:41.998Z,59.32
2023-04-12T02:47:15.972Z,59.41
2023-04-12T02:49:48.284Z,60.09
2023-04-12T02:52:19.098Z,60.72
2023-04-12T02:55:01.584Z,60.31
2023-04-12T02:57:30.317Z,60.60
2023-04-12T02:59:58.733Z,60.31
2023-04-12T03:02:35.676Z,59.96
2023-04-12T03:05:07.475Z,60.33
2023-04-12T03:07:41.445Z,61.29
2023-04-12T03:10:12.806Z,60.33
2023-04-12T03:12:49.782Z,60.46
2023-04-12T03:15:20.238Z,60.69
2023-04-12T03:17:51.294Z,61.63
2023-04-12T03:20:24.544Z,62.40
2023-04-12T03:23:04.152Z,62.63
2023-04-12T03:25:34.681Z,62.69
2023-04-12T03:28:20.144Z,61.71
2023-04-12T03:30:51.655Z,62.49
2023-04-12T03:33:24.346Z,62.60
2023-04-12T03:35:56.765Z,62.71
2023-04-12T03:38:25.812Z,63.24
2023-04-12T03:40:55.720Z,62.64
2023-04-12T03:43:35.853Z,62.97
2023-04-12T03:46:07.928Z,63.16
2023-04-12T03:48:37.862Z,63.38
2023-04-12T03:51:08.718Z,62.88
2023-04-12T03:53:40.526Z,62.41
2023-04-12T03:56:12.628Z,62.82
2023-04-12T03:58:41.005Z,62.59
2023-04-12T04:01:10.439Z,62.72
2023-04-12T04:03:41.165Z,62.56
2023-04-12T04:06:20.327Z,62.83
2023-04-12T04:08:48.811Z,62.81
2023-04-12T04:11:17.423Z,63.10
2023-04-12T04:13:50.978Z,62.86
2023-04-12T04:16:21.524Z,62.86
2023-04-12T04:18:53.390Z,62.94
2023-04-12T04:21:23.873Z,63.58
2023-04-12T04:23:58.761Z,64.01
2023-04-12T04:26:33.344Z,63.88
2023-04-12T04:29:22.238Z,64.63
2023-04-12T04:31:50.880Z,64.42
2023-04-12T04:34:22.323Z,64.35
2023-04-12T04:36:57.624Z,65.21
2023-04-12T04:39:31.851Z,66.36
2023-04-12T04:42:00.967Z,67.05
2023-04-12T04:44:51.168Z,67.25
2023-04-12T04:47:19.460Z,67.25
2023-04-12T04:49:49.825Z,66.75
2023-04-12T04:52:26.635Z,66.92
2023-04-12T04:55:00.102Z,67.20
2023-04-12T04:57:34.800Z,66.66
2023-04-12T05:00:11.012Z,66.07
2023-04-12T05:02:42.960Z,66.41
2023-04-12T05:05:16.975Z,66.28
2023-04-12T05:07:47.421Z,66.65
2023-04-12T05:10:16.684Z,66.65
2023-04-12T05:12:45.556Z,67.07
2023-04-12T05:15:16.097Z,67.40
2023-04-12T05:17:45.187Z,67.76
2023-04-12T05:20:13.566Z,67.79
2023-04-12T05:22:43.158Z,67.76
2023-04-12T05:25:11.704Z,67.46
2023-04-12T05:27:52.016Z,67.38
2023-04-12T05:30:21.646Z,67.10
2023-04-12T05:32:51.038Z,67.32
2023-04-12T05:35:20.918Z,67.46
2023-04-12T05:37:51.963Z,67.37
2023-04-12T05:40:20.341Z,67.39
2023-04-12T05:42:52.299Z,67.58
2023-04-12T05:45:20.949Z,67.51
2023-04-12T05:47:49.585Z,66.18
2023-04-12T05:50:18.462Z,65.45
2023-04-12T05:52:48.596Z,65.04
2023-04-12T05:55:18.665Z,65.26
2023-04-12T05:57:47.676Z,65.93
2023-04-12T06:00:19.302Z,65.85
2023-04-12T06:02:50.702Z,65.72
2023-04-12T06:05:19.959Z,65.36
2023-04-12T06:07:48.973Z,65.29
2023-04-12T06:10:19.386Z,64.79
2023-04-12T06:12:53.368Z,64.23
2023-04-12T06:15:22.358Z,64.30
2023-04-12T06:17:55.776Z,63.14
2023-04-12T06:20:24.053Z,62.03
2023-04-12T06:22:52.711Z,61.34
2023-04-12T06:25:23.324Z,61.39
2023-04-12T06:27:52.505Z,60.95
2023-04-12T06:30:22.264Z,59.93
2023-04-12T06:32:53.834Z,60.25
2023-04-12T06:35:23.665Z,60.09
2023-04-12T06:37:51.964Z,59.51
2023-04-12T06:40:20.502Z,59.22
2023-04-12T06:42:50.091Z,58.50
2023-04-12T06:45:23.458Z,57.45
2023-04-12T06:47:51.761Z,56.89
2023-04-12T06:50:19.964Z,56.23
2023-04-12T06:52:48.893Z,55.74
2023-04-12T06:55:17.446Z,55.16
2023-04-12T06:57:46.226Z,56.00
2023-04-12T07:00:16.689Z,55.67
2023-04-12T07:02:45.110Z,55.76
2023-04-12T07:05:13.478Z,55.45
2023-04-12T07:07:41.709Z,54.36
2023-04-12T07:10:10.707Z,53.88
2023-04-12T07:12:39.002Z,52.69
2023-04-12T07:15:07.936Z,52.43
2023-04-12T07:17:37.670Z,52.64
2023-04-12T07:20:07.053Z,52.69
2023-04-12T07:22:35.306Z,52.40
2023-04-12T07:25:05.188Z,53.33
2023-04-12T07:27:33.420Z,52.11
2023-04-12T07:30:01.702Z,52.72
2023-04-12T07:32:30.243Z,52.02
2023-04-12T07:34:59.866Z,52.49
2023-04-12T07:37:28.107Z,53.81
2023-04-12T07:39:56.382Z,52.91
2023-04-12T07:42:25.177Z,52.59
2023-04-12T07:44:53.444Z,53.30
2023-04-12T07:47:21.720Z,54.13
2023-04-12T07:49:50.108Z,53.67
2023-04-12T07:52:20.013Z,54.14
2023-04-12T07:54:48.361Z,54.44
2023-04-12T07:57:16.681Z,55.24
2023-04-12T07:59:44.941Z,55.14
2023-04-12T08:02:13.342Z,53.95
2023-04-12T08:04:44.516Z,54.61
2023-04-12T08:07:12.816Z,56.12
2023-04-12T08:09:42.484Z,54.70
2023-04-12T08:12:11.577Z,55.00
2023-04-12T08:14:40.873Z,54.43
2023-04-12T08:17:09.473Z,54.75
2023-04-12T08:19:37.952Z,54.76
2023-04-12T08:22:06.230Z,55.70
2023-04-12T08:24:34.470Z,55.13
2023-04-12T08:27:04.126Z,55.17
2023-04-12T08:29:32.463Z,54.79
2023-04-12T08:32:01.550Z,55.52
2023-04-12T08:34:29.792Z,55.77
2023-04-12T08:37:00.322Z,55.61
2023-04-12T08:39:28.658Z,55.62
2023-04-12T08:41:58.499Z,55.04
2023-04-12T08:44:38.036Z,55.48
2023-04-12T08:47:07.492Z,55.70
2023-04-12T08:49:36.276Z,54.81
2023-04-12T08:52:06.710Z,54.92
2023-04-12T08:54:35.365Z,54.28
2023-04-12T08:57:06.470Z,54.52
2023-04-12T08:59:39.527Z,55.59
2023-04-12T09:02:07.867Z,55.20
2023-04-12T09:04:48.592Z,58.57
2023-04-12T09:07:17.382Z,58.86
2023-04-12T09:09:46.420Z,56.19
2023-04-12T09:12:15.851Z,56.81
2023-04-12T09:14:45.986Z,56.26
2023-04-12T09:17:25.027Z,66.44
2023-04-12T09:19:55.087Z,58.93
2023-04-12T09:22:34.974Z,61.73
2023-04-12T09:25:03.622Z,61.63
2023-04-12T09:27:46.279Z,59.28
2023-04-12T09:30:17.759Z,56.90
2023-04-12T09:32:49.292Z,61.28
2023-04-12T09:35:18.107Z,59.03
2023-04-12T09:37:46.384Z,57.42
2023-04-12T09:40:15.178Z,59.21
2023-04-12T09:42:53.466Z,58.24
2023-04-12T09:45:25.761Z,59.70
2023-04-12T09:47:55.091Z,60.98
2023-04-12T09:50:24.680Z,60.48
2023-04-12T09:52:54.559Z,68.87
2023-04-12T09:55:24.226Z,65.86
2023-04-12T09:57:54.224Z,62.99
2023-04-12T10:00:27.041Z,61.20
2023-04-12T10:02:57.832Z,61.30
2023-04-12T10:05:27.937Z,60.78
2023-04-12T10:07:59.193Z,60.71
2023-04-12T10:10:31.789Z,61.88
2023-04-12T10:13:02.194Z,62.53
2023-04-12T10:15:35.162Z,59.06
2023-04-12T10:18:08.202Z,60.10
2023-04-12T10:20:37.559Z,59.12
2023-04-12T10:23:07.806Z,61.47
2023-04-12T10:25:36.300Z,64.19
2023-04-12T10:28:15.662Z,64.27
2023-04-12T10:30:45.758Z,66.09
2023-04-12T10:33:20.725Z,64.49
2023-04-12T10:35:57.615Z,65.82
2023-04-12T10:38:27.347Z,67.24
2023-04-12T10:41:16.303Z,66.94
2023-04-12T10:43:45.864Z,68.23
2023-04-12T10:46:54.479Z,67.69
2023-04-12T10:49:24.015Z,73.24
2023-04-12T10:52:14.950Z,67.23
2023-04-12T10:54:43.402Z,67.77
2023-04-12T10:57:47.203Z,68.87
2023-04-12T11:00:16.933Z,68.01
2023-04-12T11:03:12.512Z,66.64
2023-04-12T11:06:12.678Z,68.97
2023-04-12T11:09:07.401Z,71.78
2023-04-12T11:11:37.812Z,68.00
2023-04-12T11:14:06.513Z,65.00
2023-04-12T11:16:34.886Z,64.88
2023-04-12T11:19:04.577Z,66.91
2023-04-12T11:21:32.899Z,62.97
2023-04-12T11:24:01.920Z,57.36
2023-04-12T11:26:32.114Z,56.29
2023-04-12T11:29:07.866Z,55.17
2023-04-12T11:31:39.427Z,55.84
2023-04-12T11:34:09.173Z,55.96
2023-04-12T11:36:37.700Z,56.77
2023-04-12T11:39:06.100Z,56.60
2023-04-12T11:41:34.339Z,55.15
2023-04-12T11:44:02.685Z,56.10
2023-04-12T11:46:35.487Z,59.35
2023-04-12T11:49:03.896Z,62.19
2023-04-12T11:51:35.075Z,66.88
2023-04-12T11:54:04.445Z,59.61
2023-04-12T11:56:32.968Z,59.64
2023-04-12T11:59:01.434Z,61.83
2023-04-12T12:01:31.909Z,60.98
2023-04-12T12:04:00.981Z,61.68
2023-04-12T12:06:30.525Z,61.51
2023-04-12T12:09:00.451Z,66.25
2023-04-12T12:11:29.232Z,65.75
2023-04-12T12:13:58.163Z,63.12
2023-04-12T12:16:28.069Z,66.69
2023-04-12T12:18:57.298Z,66.86
2023-04-12T12:21:27.287Z,64.70
2023-04-12T12:23:57.951Z,64.43
2023-04-12T12:26:29.199Z,65.97
2023-04-12T12:29:00.368Z,66.03
2023-04-12T12:31:29.349Z,68.30
2023-04-12T12:33:58.752Z,66.27
2023-04-12T12:36:33.718Z,67.31
2023-04-12T12:39:08.055Z,68.52
2023-04-12T12:41:38.080Z,66.62
2023-04-12T12:44:07.907Z,66.61
2023-04-12T12:46:51.690Z,65.99
2023-04-12T12:49:22.394Z,65.01
2023-04-12T12:51:51.909Z,58.40
2023-04-12T12:54:38.852Z,54.71
2023-04-12T12:57:10.536Z,56.42
2023-04-12T12:59:38.945Z,55.47
2023-04-12T13:02:07.581Z,54.87
2023-04-12T13:04:36.414Z,58.51
2023-04-12T13:07:04.767Z,56.62
2023-04-12T13:09:33.520Z,53.54
2023-04-12T13:12:02.429Z,58.35
2023-04-12T13:14:32.061Z,57.87
2023-04-12T13:17:00.343Z,58.54
2023-04-12T13:19:28.670Z,56.16
2023-04-12T13:21:57.309Z,56.55
2023-04-12T13:24:25.787Z,59.33
2023-04-12T13:26:54.465Z,59.67
2023-04-12T13:29:22.697Z,60.18
2023-04-12T13:31:52.466Z,61.62
2023-04-12T13:34:20.726Z,64.59
2023-04-12T13:36:49.072Z,64.30
2023-04-12T13:39:17.282Z,62.90
2023-04-12T13:41:47.077Z,64.85
2023-04-12T13:44:15.392Z,65.95
2023-04-12T13:46:43.627Z,63.72
2023-04-12T13:49:13.247Z,65.35
2023-04-12T13:51:41.527Z,67.52
2023-04-12T13:54:09.747Z,67.65
2023-04-12T13:56:37.982Z,63.83
2023-04-12T13:59:06.231Z,64.81
2023-04-12T14:01:34.481Z,64.36
2023-04-12T14:04:04.003Z,67.28
2023-04-12T14:06:34.414Z,65.75
2023-04-12T14:09:02.641Z,68.10
2023-04-12T14:11:30.868Z,66.67
2023-04-12T14:13:59.104Z,67.53
2023-04-12T14:16:27.351Z,71.64
2023-04-12T14:18:55.828Z,66.39
2023-04-12T14:21:29.007Z,68.13
2023-04-12T14:23:58.836Z,65.96
2023-04-12T14:26:27.410Z,67.69
2023-04-12T14:28:55.742Z,67.12
2023-04-12T14:31:24.344Z,66.98
2023-04-12T14:33:53.487Z,108.77
2023-04-12T14:36:21.777Z,116.39
2023-04-12T14:38:50.908Z,118.21
2023-04-12T14:41:20.669Z,118.50
2023-04-12T14:43:49.851Z,-4.25
2023-04-12T14:46:18.738Z,-5.04
2023-04-12T14:48:47.084Z,-5.77
2023-04-12T14:51:15.485Z,-5.91
2023-04-12T14:53:55.354Z,115.18
2023-04-12T14:56:30.182Z,113.06
2023-04-12T14:58:59.464Z,112.64
2023-04-12T15:01:28.725Z,109.90
2023-04-12T15:03:57.238Z,102.38
2023-04-12T15:06:27.228Z,105.15
2023-04-12T15:08:55.559Z,107.24
2023-04-12T15:11:27.247Z,108.37
2023-04-12T15:13:56.334Z,110.49
2023-04-12T15:16:24.838Z,107.93
2023-04-12T15:18:53.067Z,104.31
2023-04-12T15:21:21.404Z,102.59
2023-04-12T15:23:50.470Z,105.07
2023-04-12T15:26:18.840Z,102.97
2023-04-12T15:28:48.520Z,106.91
2023-04-12T15:31:16.845Z,110.21
2023-04-12T15:33:46.652Z,113.65
2023-04-12T15:36:16.712Z,112.46
2023-04-12T15:38:44.951Z,112.68
2023-04-12T15:41:13.233Z,112.52
2023-04-12T15:43:42.129Z,113.06
2023-04-12T15:46:15.018Z,112.37
2023-04-12T15:48:43.340Z,113.42
2023-04-12T15:51:11.593Z,106.00
2023-04-12T15:53:42.313Z,103.40
2023-04-12T15:56:13.676Z,98.87
2023-04-12T15:58:43.192Z,100.43
2023-04-12T16:01:12.980Z,92.92
2023-04-12T16:03:42.866Z,92.69
2023-04-12T16:06:12.320Z,93.62
2023-04-12T16:08:40.621Z,95.64
2023-04-12T16:11:12.151Z,94.58
2023-04-12T16:13:41.877Z,95.54
2023-04-12T16:16:12.823Z,100.03
2023-04-12T16:18:43.143Z,96.65
2023-04-12T16:21:16.312Z,95.09
2023-04-12T16:23:45.273Z,93.96
2023-04-12T16:26:14.169Z,93.23
2023-04-12T16:28:42.920Z,92.54
2023-04-12T16:31:11.434Z,92.98
2023-04-12T16:33:39.733Z,93.91
2023-04-12T16:36:09.519Z,93.56
2023-04-12T16:38:37.844Z,93.11
2023-04-12T16:41:06.481Z,92.82
2023-04-12T16:43:34.699Z,92.79
2023-04-12T16:46:05.908Z,91.03
2023-04-12T16:48:35.528Z,91.59
2023-04-12T16:51:04.837Z,91.15
2023-04-12T16:53:34.507Z,89.41
2023-04-12T16:56:02.985Z,87.26
2023-04-12T16:58:31.685Z,88.34
2023-04-12T17:00:59.949Z,94.46
2023-04-12T17:03:29.020Z,97.39
2023-04-12T17:05:57.833Z,100.06
2023-04-12T17:08:26.167Z,101.36
2023-04-12T17:10:55.924Z,102.98
2023-04-12T17:13:24.277Z,102.27
2023-04-12T17:15:52.799Z,102.24
2023-04-12T17:18:21.507Z,104.70
2023-04-12T17:20:49.864Z,105.18
2023-04-12T17:23:18.119Z,105.30
2023-04-12T17:25:46.657Z,105.11
2023-04-12T17:28:16.370Z,107.50
2023-04-12T17:30:44.952Z,107.80
2023-04-12T17:33:13.216Z,107.36
2023-04-12T17:35:41.610Z,107.47
2023-04-12T17:38:09.922Z,107.43
2023-04-12T17:40:38.468Z,108.49
2023-04-12T17:43:06.666Z,108.88
2023-04-12T17:45:36.341Z,108.93
2023-04-12T17:48:05.285Z,109.65
2023-04-12T17:50:33.676Z,109.14
2023-04-12T17:53:01.995Z,109.29
2023-04-12T17:55:30.605Z,108.90
2023-04-12T17:57:58.865Z,108.97
2023-04-12T18:00:27.356Z,110.30
2023-04-12T18:02:57.953Z,109.96
2023-04-12T18:05:26.344Z,110.31
2023-04-12T18:07:57.036Z,110.61
2023-04-12T18:10:27.394Z,110.67
2023-04-12T18:12:55.693Z,110.43
2023-04-12T18:15:23.939Z,111.30
2023-04-12T18:17:52.225Z,111.87
2023-04-12T18:20:22.094Z,112.59
2023-04-12T18:22:50.402Z,113.44
2023-04-12T18:25:18.776Z,113.15
2023-04-12T18:27:48.458Z,111.46
2023-04-12T18:30:17.653Z,112.80
2023-04-12T18:32:46.553Z,112.13
2023-04-12T18:35:15.333Z,113.43
2023-04-12T18:37:45.304Z,112.94
2023-04-12T18:40:16.042Z,111.38
2023-04-12T18:42:45.403Z,112.61
2023-04-12T18:45:14.417Z,111.93
2023-04-12T18:47:42.670Z,112.94
2023-04-12T18:50:11.515Z,111.29
2023-04-12T18:52:39.932Z,112.27
2023-04-12T18:55:10.061Z,112.41
2023-04-12T18:57:38.502Z,112.22
2023-04-12T19:00:13.551Z,108.56
2023-04-12T19:02:42.118Z,111.06
2023-04-12T19:05:11.122Z,108.03
2023-04-12T19:07:39.383Z,112.55
2023-04-12T19:10:10.210Z,110.56
2023-04-12T19:12:38.572Z,110.38
2023-04-12T19:15:08.922Z,109.05
2023-04-12T19:17:39.031Z,109.20
2023-04-12T19:20:09.006Z,111.02
2023-04-12T19:22:37.285Z,111.24
2023-04-12T19:25:06.246Z,110.38
2023-04-12T19:27:35.902Z,110.45
2023-04-12T19:30:04.545Z,112.06
2023-04-12T19:32:32.899Z,110.42
2023-04-12T19:35:01.176Z,110.62
2023-04-12T19:37:33.936Z,112.32
2023-04-12T19:40:02.493Z,113.10
2023-04-12T19:42:30.719Z,112.66
2023-04-12T19:45:01.598Z,111.79
2023-04-12T19:47:29.920Z,114.21
2023-04-12T19:49:58.849Z,114.69
2023-04-12T19:52:28.401Z,112.99
2023-04-12T19:54:57.212Z,113.16
2023-04-12T19:57:25.603Z,113.60
2023-04-12T19:59:53.856Z,114.09
2023-04-12T20:02:24.654Z,114.12
2023-04-12T20:04:53.421Z,114.44
2023-04-12T20:07:21.711Z,114.63
2023-04-12T20:09:49.937Z,114.77
2023-04-12T20:12:19.276Z,115.05
2023-04-12T20:14:48.337Z,114.27
2023-04-12T20:17:16.587Z,113.47
2023-04-12T20:19:46.880Z,113.58
2023-04-12T20:22:15.388Z,113.24
2023-04-12T20:24:43.672Z,113.21
2023-04-12T20:27:16.708Z,113.26
2023-04-12T20:29:46.657Z,113.56
2023-04-12T20:32:15.336Z,112.84
2023-04-12T20:34:46.699Z,113.13
2023-04-12T20:37:17.446Z,113.41
2023-04-12T20:39:45.732Z,113.13
2023-04-12T20:42:16.430Z,110.87
2023-04-12T20:44:44.645Z,106.46
2023-04-12T20:47:13.183Z,101.28
2023-04-12T20:49:42.367Z,85.10
2023-04-12T20:52:11.090Z,72.13
2023-04-12T20:54:41.577Z,60.99
2023-04-12T20:57:10.564Z,61.31
2023-04-12T20:59:38.815Z,60.15
2023-04-12T21:02:07.160Z,59.24
2023-04-12T21:04:36.472Z,59.60
2023-04-12T21:07:05.523Z,60.89
2023-04-12T21:09:34.057Z,60.28
2023-04-12T21:12:06.149Z,59.94
2023-04-12T21:14:35.569Z,60.76
2023-04-12T21:17:04.982Z,60.69
2023-04-12T21:19:33.283Z,59.85
2023-04-12T21:22:01.952Z,60.44
2023-04-12T21:24:31.000Z,60.07
2023-04-12T21:26:59.938Z,60.15
2023-04-12T21:29:31.930Z,59.18
2023-04-12T21:32:02.158Z,60.02
2023-04-12T21:34:32.561Z,58.72
2023-04-12T21:37:04.229Z,58.36
2023-04-12T21:39:33.005Z,59.30
2023-04-12T21:42:01.649Z,59.89
2023-04-12T21:44:31.959Z,58.87
2023-04-12T21:47:00.198Z,60.38
2023-04-12T21:49:30.109Z,60.67
2023-04-12T21:51:59.205Z,60.71
2023-04-12T21:54:29.039Z,59.77
2023-04-12T21:56:58.298Z,61.28
2023-04-12T21:59:26.667Z,60.44
2023-04-12T22:01:56.280Z,62.27
2023-04-12T22:04:24.557Z,60.75
2023-04-12T22:06:52.982Z,60.93
2023-04-12T22:09:21.235Z,61.29
2023-04-12T22:11:50.190Z,61.65
2023-04-12T22:14:18.440Z,60.06
2023-04-12T22:16:46.836Z,61.23
2023-04-12T22:19:17.184Z,62.24
2023-04-12T22:21:48.504Z,60.32
2023-04-12T22:24:17.530Z,59.76
2023-04-12T22:26:45.780Z,59.45
2023-04-12T22:29:17.433Z,58.49
2023-04-12T22:31:47.046Z,59.06
2023-04-12T22:34:17.026Z,59.14
2023-04-12T22:36:47.299Z,59.11
2023-04-12T22:39:16.441Z,58.93
2023-04-12T22:41:49.710Z,58.80
2023-04-12T22:44:18.435Z,58.58
2023-04-12T22:46:48.212Z,58.80
2023-04-12T22:49:19.977Z,58.87
2023-04-12T22:51:48.329Z,58.58
2023-04-12T22:54:17.511Z,58.80
2023-04-12T22:56:46.264Z,58.64
2023-04-12T22:59:15.319Z,58.58
2023-04-12T23:01:44.704Z,58.26
2023-04-12T23:04:13.246Z,58.80
2023-04-12T23:06:44.593Z,58.70
2023-04-12T23:09:13.943Z,58.54
2023-04-12T23:11:42.874Z,58.43
2023-04-12T23:14:11.215Z,58.18
2023-04-12T23:16:44.169Z,58.00
2023-04-12T23:19:14.473Z,57.99
2023-04-12T23:21:44.854Z,57.67
2023-04-12T23:24:15.560Z,57.73
2023-04-12T23:26:45.224Z,57.48
2023-04-12T23:29:13.776Z,57.67
2023-04-12T23:31:42.334Z,57.79
2023-04-12T23:34:10.646Z,57.60
2023-04-12T23:36:39.085Z,58.28
2023-04-12T23:39:09.665Z,58.35
2023-04-12T23:41:40.740Z,59.03
2023-04-12T23:44:09.270Z,58.96
2023-04-12T23:46:37.560Z,58.89
2023-04-12T23:49:05.845Z,59.41
2023-04-12T23:51:34.133Z,58.79
2023-04-12T23:54:02.354Z,59.58
2023-04-12T23:56:32.190Z,59.26
2023-04-12T23:59:00.535Z,59.69
